sensor_id;sensor_type;location;lat;lon;timestamp;temperature;humidity
37910;DHT22;23741;49.446;8.754;2023-03-01T00:00:17;7.00;51.80
37910;DHT22;23741;49.446;8.754;2023-03-01T00:02:19;7.00;51.90
37910;DHT22;23741;49.446;8.754;2023-03-01T00:04:21;6.90;51.90
37910;DHT22;23741;49.446;8.754;2023-03-01T00:06:23;6.90;52.10
37910;DHT22;23741;49.446;8.754;2023-03-01T00:08:25;6.90;51.90
37910;DHT22;23741;49.446;8.754;2023-03-01T00:10:27;6.90;51.80
37910;DHT22;23741;49.446;8.754;2023-03-01T00:12:29;6.90;51.80
37910;DHT22;23741;49.446;8.754;2023-03-01T00:14:32;6.90;51.80
37910;DHT22;23741;49.446;8.754;2023-03-01T00:16:35;6.90;51.80
37910;DHT22;23741;49.446;8.754;2023-03-01T00:18:37;6.90;51.70
37910;DHT22;23741;49.446;8.754;2023-03-01T00:20:39;6.80;51.70
37910;DHT22;23741;49.446;8.754;2023-03-01T00:22:40;6.80;51.90
37910;DHT22;23741;49.446;8.754;2023-03-01T00:24:42;6.80;52.00
37910;DHT22;23741;49.446;8.754;2023-03-01T00:26:44;6.80;51.90
37910;DHT22;23741;49.446;8.754;2023-03-01T00:28:46;6.80;52.10
37910;DHT22;23741;49.446;8.754;2023-03-01T00:30:48;6.80;52.10
37910;DHT22;23741;49.446;8.754;2023-03-01T00:32:49;6.80;52.10
37910;DHT22;23741;49.446;8.754;2023-03-01T00:34:51;6.80;52.20
37910;DHT22;23741;49.446;8.754;2023-03-01T00:36:55;6.80;52.20
37910;DHT22;23741;49.446;8.754;2023-03-01T00:39:09;6.80;52.10
37910;DHT22;23741;49.446;8.754;2023-03-01T00:41:15;6.80;51.90
37910;DHT22;23741;49.446;8.754;2023-03-01T00:43:17;6.80;51.90
37910;DHT22;23741;49.446;8.754;2023-03-01T00:45:19;6.80;52.00
37910;DHT22;23741;49.446;8.754;2023-03-01T00:47:21;6.80;52.00
37910;DHT22;23741;49.446;8.754;2023-03-01T00:49:22;6.80;51.90
37910;DHT22;23741;49.446;8.754;2023-03-01T00:51:26;6.80;51.90
37910;DHT22;23741;49.446;8.754;2023-03-01T00:53:29;6.70;51.90
37910;DHT22;23741;49.446;8.754;2023-03-01T00:55:31;6.70;52.00
37910;DHT22;23741;49.446;8.754;2023-03-01T00:57:33;6.70;52.20
37910;DHT22;23741;49.446;8.754;2023-03-01T00:59:35;6.70;52.10
37910;DHT22;23741;49.446;8.754;2023-03-01T01:01:36;6.70;52.00
37910;DHT22;23741;49.446;8.754;2023-03-01T01:03:38;6.60;52.10
37910;DHT22;23741;49.446;8.754;2023-03-01T01:05:40;6.70;52.30
37910;DHT22;23741;49.446;8.754;2023-03-01T01:07:42;6.60;52.30
37910;DHT22;23741;49.446;8.754;2023-03-01T01:09:43;6.60;52.40
37910;DHT22;23741;49.446;8.754;2023-03-01T01:11:46;6.60;52.50
37910;DHT22;23741;49.446;8.754;2023-03-01T01:13:48;6.60;52.50
37910;DHT22;23741;49.446;8.754;2023-03-01T01:15:50;6.60;52.60
37910;DHT22;23741;49.446;8.754;2023-03-01T01:17:52;6.60;52.60
37910;DHT22;23741;49.446;8.754;2023-03-01T01:19:53;6.60;52.50
37910;DHT22;23741;49.446;8.754;2023-03-01T01:21:55;6.60;52.60
37910;DHT22;23741;49.446;8.754;2023-03-01T01:23:57;6.60;52.60
37910;DHT22;23741;49.446;8.754;2023-03-01T01:28:27;6.60;52.50
37910;DHT22;23741;49.446;8.754;2023-03-01T01:30:29;6.60;52.60
37910;DHT22;23741;49.446;8.754;2023-03-01T01:32:30;6.60;52.50
37910;DHT22;23741;49.446;8.754;2023-03-01T01:34:32;6.60;52.60
37910;DHT22;23741;49.446;8.754;2023-03-01T01:36:34;6.60;52.70
37910;DHT22;23741;49.446;8.754;2023-03-01T01:38:36;6.60;52.60
37910;DHT22;23741;49.446;8.754;2023-03-01T01:40:45;6.60;52.40
37910;DHT22;23741;49.446;8.754;2023-03-01T01:42:47;6.60;52.50
37910;DHT22;23741;49.446;8.754;2023-03-01T01:45:15;6.60;52.70
37910;DHT22;23741;49.446;8.754;2023-03-01T01:47:14;6.60;52.90
37910;DHT22;23741;49.446;8.754;2023-03-01T01:51:21;6.60;52.80
37910;DHT22;23741;49.446;8.754;2023-03-01T01:53:23;6.60;53.00
37910;DHT22;23741;49.446;8.754;2023-03-01T01:55:25;6.60;52.90
37910;DHT22;23741;49.446;8.754;2023-03-01T01:57:35;6.60;53.00
37910;DHT22;23741;49.446;8.754;2023-03-01T01:59:38;6.60;53.10
37910;DHT22;23741;49.446;8.754;2023-03-01T02:01:42;6.60;53.20
37910;DHT22;23741;49.446;8.754;2023-03-01T02:03:44;6.60;53.00
37910;DHT22;23741;49.446;8.754;2023-03-01T02:05:49;6.50;53.10
37910;DHT22;23741;49.446;8.754;2023-03-01T02:07:56;6.60;53.20
37910;DHT22;23741;49.446;8.754;2023-03-01T02:09:59;6.60;53.10
37910;DHT22;23741;49.446;8.754;2023-03-01T02:12:01;6.60;53.00
37910;DHT22;23741;49.446;8.754;2023-03-01T02:14:03;6.50;53.10
37910;DHT22;23741;49.446;8.754;2023-03-01T02:16:08;6.50;52.90
37910;DHT22;23741;49.446;8.754;2023-03-01T02:18:11;6.50;53.00
37910;DHT22;23741;49.446;8.754;2023-03-01T02:22:18;6.50;53.00
37910;DHT22;23741;49.446;8.754;2023-03-01T02:26:40;6.50;53.10
37910;DHT22;23741;49.446;8.754;2023-03-01T02:28:42;6.50;53.10
37910;DHT22;23741;49.446;8.754;2023-03-01T02:30:46;6.50;53.20
37910;DHT22;23741;49.446;8.754;2023-03-01T02:33:07;6.40;53.30
37910;DHT22;23741;49.446;8.754;2023-03-01T02:35:10;6.40;53.40
37910;DHT22;23741;49.446;8.754;2023-03-01T02:37:13;6.50;53.40
37910;DHT22;23741;49.446;8.754;2023-03-01T02:39:23;6.40;53.20
37910;DHT22;23741;49.446;8.754;2023-03-01T02:41:27;6.50;53.30
37910;DHT22;23741;49.446;8.754;2023-03-01T02:43:31;6.40;53.20
37910;DHT22;23741;49.446;8.754;2023-03-01T02:45:33;6.40;53.20
37910;DHT22;23741;49.446;8.754;2023-03-01T02:47:35;6.40;53.10
37910;DHT22;23741;49.446;8.754;2023-03-01T02:49:37;6.40;53.10
37910;DHT22;23741;49.446;8.754;2023-03-01T02:53:42;6.40;53.20
37910;DHT22;23741;49.446;8.754;2023-03-01T02:55:45;6.40;53.10
37910;DHT22;23741;49.446;8.754;2023-03-01T02:57:47;6.40;53.30
37910;DHT22;23741;49.446;8.754;2023-03-01T02:59:52;6.40;53.20
37910;DHT22;23741;49.446;8.754;2023-03-01T03:01:55;6.40;53.50
37910;DHT22;23741;49.446;8.754;2023-03-01T03:03:56;6.40;53.50
37910;DHT22;23741;49.446;8.754;2023-03-01T03:05:58;6.40;53.50
37910;DHT22;23741;49.446;8.754;2023-03-01T03:08:01;6.40;53.60
37910;DHT22;23741;49.446;8.754;2023-03-01T03:10:07;6.40;53.50
37910;DHT22;23741;49.446;8.754;2023-03-01T03:12:10;6.40;53.60
37910;DHT22;23741;49.446;8.754;2023-03-01T03:14:12;6.40;53.70
37910;DHT22;23741;49.446;8.754;2023-03-01T03:16:18;6.40;53.60
37910;DHT22;23741;49.446;8.754;2023-03-01T03:18:20;6.40;53.60
37910;DHT22;23741;49.446;8.754;2023-03-01T03:20:23;6.40;53.60
37910;DHT22;23741;49.446;8.754;2023-03-01T03:22:25;6.40;53.60
37910;DHT22;23741;49.446;8.754;2023-03-01T03:24:30;6.40;53.50
37910;DHT22;23741;49.446;8.754;2023-03-01T03:26:39;6.40;53.80
37910;DHT22;23741;49.446;8.754;2023-03-01T03:28:40;6.40;53.60
37910;DHT22;23741;49.446;8.754;2023-03-01T03:30:42;6.40;53.70
37910;DHT22;23741;49.446;8.754;2023-03-01T03:32:45;6.40;53.50
37910;DHT22;23741;49.446;8.754;2023-03-01T03:34:56;6.40;53.50
37910;DHT22;23741;49.446;8.754;2023-03-01T03:36:58;6.40;53.60
37910;DHT22;23741;49.446;8.754;2023-03-01T03:39:00;6.40;53.80
37910;DHT22;23741;49.446;8.754;2023-03-01T03:41:03;6.40;53.50
37910;DHT22;23741;49.446;8.754;2023-03-01T03:43:06;6.40;53.50
37910;DHT22;23741;49.446;8.754;2023-03-01T03:45:08;6.40;53.60
37910;DHT22;23741;49.446;8.754;2023-03-01T03:47:10;6.30;53.50
37910;DHT22;23741;49.446;8.754;2023-03-01T03:49:12;6.40;53.60
37910;DHT22;23741;49.446;8.754;2023-03-01T03:51:14;6.30;53.50
37910;DHT22;23741;49.446;8.754;2023-03-01T03:53:16;6.30;53.50
37910;DHT22;23741;49.446;8.754;2023-03-01T03:55:18;6.30;53.40
37910;DHT22;23741;49.446;8.754;2023-03-01T03:57:20;6.30;53.70
37910;DHT22;23741;49.446;8.754;2023-03-01T03:59:22;6.30;53.90
37910;DHT22;23741;49.446;8.754;2023-03-01T04:01:24;6.30;53.90
37910;DHT22;23741;49.446;8.754;2023-03-01T04:03:26;6.20;53.60
37910;DHT22;23741;49.446;8.754;2023-03-01T04:05:28;6.30;53.50
37910;DHT22;23741;49.446;8.754;2023-03-01T04:07:30;6.20;53.60
37910;DHT22;23741;49.446;8.754;2023-03-01T04:09:32;6.30;53.60
37910;DHT22;23741;49.446;8.754;2023-03-01T04:11:41;6.20;53.50
37910;DHT22;23741;49.446;8.754;2023-03-01T04:13:42;6.20;53.70
37910;DHT22;23741;49.446;8.754;2023-03-01T04:15:44;6.20;54.10
37910;DHT22;23741;49.446;8.754;2023-03-01T04:17:46;6.20;53.90
37910;DHT22;23741;49.446;8.754;2023-03-01T04:19:48;6.20;54.00
37910;DHT22;23741;49.446;8.754;2023-03-01T04:21:50;6.20;53.80
37910;DHT22;23741;49.446;8.754;2023-03-01T04:23:51;6.20;53.80
37910;DHT22;23741;49.446;8.754;2023-03-01T04:25:54;6.20;53.90
37910;DHT22;23741;49.446;8.754;2023-03-01T04:27:57;6.20;53.80
37910;DHT22;23741;49.446;8.754;2023-03-01T04:29:58;6.20;53.50
37910;DHT22;23741;49.446;8.754;2023-03-01T04:32:00;6.20;53.60
37910;DHT22;23741;49.446;8.754;2023-03-01T04:34:02;6.20;53.90
37910;DHT22;23741;49.446;8.754;2023-03-01T04:36:04;6.20;54.20
37910;DHT22;23741;49.446;8.754;2023-03-01T04:38:07;6.20;54.10
37910;DHT22;23741;49.446;8.754;2023-03-01T04:40:09;6.20;54.10
37910;DHT22;23741;49.446;8.754;2023-03-01T04:42:18;6.20;54.10
37910;DHT22;23741;49.446;8.754;2023-03-01T04:44:19;6.20;54.10
37910;DHT22;23741;49.446;8.754;2023-03-01T04:46:21;6.20;54.10
37910;DHT22;23741;49.446;8.754;2023-03-01T04:48:23;6.20;54.00
37910;DHT22;23741;49.446;8.754;2023-03-01T04:50:25;6.20;54.10
37910;DHT22;23741;49.446;8.754;2023-03-01T04:52:27;6.20;54.10
37910;DHT22;23741;49.446;8.754;2023-03-01T04:54:29;6.20;54.00
37910;DHT22;23741;49.446;8.754;2023-03-01T04:56:31;6.30;54.10
37910;DHT22;23741;49.446;8.754;2023-03-01T04:58:33;6.30;54.10
37910;DHT22;23741;49.446;8.754;2023-03-01T05:00:35;6.30;54.00
37910;DHT22;23741;49.446;8.754;2023-03-01T05:02:36;6.30;54.10
37910;DHT22;23741;49.446;8.754;2023-03-01T05:04:38;6.30;54.20
37910;DHT22;23741;49.446;8.754;2023-03-01T05:06:40;6.30;54.00
37910;DHT22;23741;49.446;8.754;2023-03-01T05:08:42;6.30;54.00
37910;DHT22;23741;49.446;8.754;2023-03-01T05:10:45;6.30;53.80
37910;DHT22;23741;49.446;8.754;2023-03-01T05:12:47;6.30;53.80
37910;DHT22;23741;49.446;8.754;2023-03-01T05:14:49;6.30;53.90
37910;DHT22;23741;49.446;8.754;2023-03-01T05:16:52;6.30;53.90
37910;DHT22;23741;49.446;8.754;2023-03-01T05:18:54;6.30;53.60
37910;DHT22;23741;49.446;8.754;2023-03-01T05:21:06;6.30;53.50
37910;DHT22;23741;49.446;8.754;2023-03-01T05:23:08;6.30;53.70
37910;DHT22;23741;49.446;8.754;2023-03-01T05:25:10;6.30;53.70
37910;DHT22;23741;49.446;8.754;2023-03-01T05:27:12;6.30;53.60
37910;DHT22;23741;49.446;8.754;2023-03-01T05:29:15;6.30;53.60
37910;DHT22;23741;49.446;8.754;2023-03-01T05:31:17;6.30;53.70
37910;DHT22;23741;49.446;8.754;2023-03-01T05:33:18;6.30;53.70
37910;DHT22;23741;49.446;8.754;2023-03-01T05:35:20;6.40;53.60
37910;DHT22;23741;49.446;8.754;2023-03-01T05:37:22;6.40;53.80
37910;DHT22;23741;49.446;8.754;2023-03-01T05:39:25;6.40;53.70
37910;DHT22;23741;49.446;8.754;2023-03-01T05:41:27;6.40;53.70
37910;DHT22;23741;49.446;8.754;2023-03-01T05:43:32;6.40;53.70
37910;DHT22;23741;49.446;8.754;2023-03-01T05:45:37;6.40;53.80
37910;DHT22;23741;49.446;8.754;2023-03-01T05:47:40;6.40;53.60
37910;DHT22;23741;49.446;8.754;2023-03-01T05:49:44;6.40;53.60
37910;DHT22;23741;49.446;8.754;2023-03-01T05:51:50;6.40;53.50
37910;DHT22;23741;49.446;8.754;2023-03-01T05:53:51;6.40;53.60
37910;DHT22;23741;49.446;8.754;2023-03-01T05:55:53;6.40;53.40
37910;DHT22;23741;49.446;8.754;2023-03-01T05:57:57;6.40;53.40
37910;DHT22;23741;49.446;8.754;2023-03-01T05:59:59;6.40;53.60
37910;DHT22;23741;49.446;8.754;2023-03-01T06:02:00;6.40;53.70
37910;DHT22;23741;49.446;8.754;2023-03-01T06:04:02;6.40;53.50
37910;DHT22;23741;49.446;8.754;2023-03-01T06:06:04;6.40;53.50
37910;DHT22;23741;49.446;8.754;2023-03-01T06:08:06;6.40;53.40
37910;DHT22;23741;49.446;8.754;2023-03-01T06:10:08;6.40;53.40
37910;DHT22;23741;49.446;8.754;2023-03-01T06:12:11;6.40;53.40
37910;DHT22;23741;49.446;8.754;2023-03-01T06:14:14;6.40;53.40
37910;DHT22;23741;49.446;8.754;2023-03-01T06:16:16;6.40;53.30
37910;DHT22;23741;49.446;8.754;2023-03-01T06:18:17;6.40;53.40
37910;DHT22;23741;49.446;8.754;2023-03-01T06:20:20;6.40;53.20
37910;DHT22;23741;49.446;8.754;2023-03-01T06:22:22;6.40;53.30
37910;DHT22;23741;49.446;8.754;2023-03-01T06:24:24;6.40;53.40
37910;DHT22;23741;49.446;8.754;2023-03-01T06:26:26;6.40;53.50
37910;DHT22;23741;49.446;8.754;2023-03-01T06:28:27;6.40;53.30
37910;DHT22;23741;49.446;8.754;2023-03-01T06:30:29;6.30;53.30
37910;DHT22;23741;49.446;8.754;2023-03-01T06:32:31;6.40;53.20
37910;DHT22;23741;49.446;8.754;2023-03-01T06:34:33;6.30;53.10
37910;DHT22;23741;49.446;8.754;2023-03-01T06:36:35;6.30;53.20
37910;DHT22;23741;49.446;8.754;2023-03-01T06:38:37;6.30;53.40
37910;DHT22;23741;49.446;8.754;2023-03-01T06:40:38;6.30;53.20
37910;DHT22;23741;49.446;8.754;2023-03-01T06:42:41;6.30;53.10
37910;DHT22;23741;49.446;8.754;2023-03-01T06:44:44;6.30;53.10
37910;DHT22;23741;49.446;8.754;2023-03-01T06:46:45;6.30;53.20
37910;DHT22;23741;49.446;8.754;2023-03-01T06:48:47;6.30;53.00
37910;DHT22;23741;49.446;8.754;2023-03-01T06:50:49;6.30;53.30
37910;DHT22;23741;49.446;8.754;2023-03-01T06:52:54;6.30;53.50
37910;DHT22;23741;49.446;8.754;2023-03-01T06:54:56;6.30;53.60
37910;DHT22;23741;49.446;8.754;2023-03-01T06:56:58;6.30;53.50
37910;DHT22;23741;49.446;8.754;2023-03-01T06:58:59;6.30;54.30
37910;DHT22;23741;49.446;8.754;2023-03-01T07:01:05;6.30;53.30
37910;DHT22;23741;49.446;8.754;2023-03-01T07:03:07;6.30;53.40
37910;DHT22;23741;49.446;8.754;2023-03-01T07:05:09;6.30;53.40
37910;DHT22;23741;49.446;8.754;2023-03-01T07:07:11;6.30;53.50
37910;DHT22;23741;49.446;8.754;2023-03-01T07:09:13;6.30;53.50
37910;DHT22;23741;49.446;8.754;2023-03-01T07:11:15;6.30;53.40
37910;DHT22;23741;49.446;8.754;2023-03-01T07:13:17;6.30;53.40
37910;DHT22;23741;49.446;8.754;2023-03-01T07:15:18;6.40;53.40
37910;DHT22;23741;49.446;8.754;2023-03-01T07:17:20;6.40;53.60
37910;DHT22;23741;49.446;8.754;2023-03-01T07:19:22;6.40;53.60
37910;DHT22;23741;49.446;8.754;2023-03-01T07:21:24;6.40;53.50
37910;DHT22;23741;49.446;8.754;2023-03-01T07:23:25;6.40;53.50
37910;DHT22;23741;49.446;8.754;2023-03-01T07:25:27;6.40;53.30
37910;DHT22;23741;49.446;8.754;2023-03-01T07:27:30;6.40;53.10
37910;DHT22;23741;49.446;8.754;2023-03-01T07:29:32;6.40;53.10
37910;DHT22;23741;49.446;8.754;2023-03-01T07:31:34;6.40;53.10
37910;DHT22;23741;49.446;8.754;2023-03-01T07:33:35;6.40;53.10
37910;DHT22;23741;49.446;8.754;2023-03-01T07:35:37;6.40;53.20
37910;DHT22;23741;49.446;8.754;2023-03-01T07:37:39;6.40;53.00
37910;DHT22;23741;49.446;8.754;2023-03-01T07:39:40;6.40;53.00
37910;DHT22;23741;49.446;8.754;2023-03-01T07:41:42;6.40;53.00
37910;DHT22;23741;49.446;8.754;2023-03-01T07:43:44;6.40;53.20
37910;DHT22;23741;49.446;8.754;2023-03-01T07:45:46;6.40;53.00
37910;DHT22;23741;49.446;8.754;2023-03-01T07:47:47;6.40;53.10
37910;DHT22;23741;49.446;8.754;2023-03-01T07:49:51;6.40;53.10
37910;DHT22;23741;49.446;8.754;2023-03-01T07:51:53;6.40;53.00
37910;DHT22;23741;49.446;8.754;2023-03-01T07:53:54;6.40;53.20
37910;DHT22;23741;49.446;8.754;2023-03-01T07:56:12;6.50;53.20
37910;DHT22;23741;49.446;8.754;2023-03-01T07:58:14;6.50;52.90
37910;DHT22;23741;49.446;8.754;2023-03-01T08:00:16;6.50;52.90
37910;DHT22;23741;49.446;8.754;2023-03-01T08:02:18;6.50;52.90
37910;DHT22;23741;49.446;8.754;2023-03-01T08:04:20;6.50;52.90
37910;DHT22;23741;49.446;8.754;2023-03-01T08:06:22;6.50;53.00
37910;DHT22;23741;49.446;8.754;2023-03-01T08:08:24;6.50;52.90
37910;DHT22;23741;49.446;8.754;2023-03-01T08:10:26;6.50;52.70
37910;DHT22;23741;49.446;8.754;2023-03-01T08:12:27;6.50;52.80
37910;DHT22;23741;49.446;8.754;2023-03-01T08:14:29;6.50;52.80
37910;DHT22;23741;49.446;8.754;2023-03-01T08:16:31;6.60;53.00
37910;DHT22;23741;49.446;8.754;2023-03-01T08:18:35;6.60;53.10
37910;DHT22;23741;49.446;8.754;2023-03-01T08:20:37;6.60;53.10
37910;DHT22;23741;49.446;8.754;2023-03-01T08:22:38;6.60;53.00
37910;DHT22;23741;49.446;8.754;2023-03-01T08:24:40;6.60;53.00
37910;DHT22;23741;49.446;8.754;2023-03-01T08:26:42;6.70;53.20
37910;DHT22;23741;49.446;8.754;2023-03-01T08:28:44;6.70;53.10
37910;DHT22;23741;49.446;8.754;2023-03-01T08:30:45;6.70;53.20
37910;DHT22;23741;49.446;8.754;2023-03-01T08:32:47;6.80;53.20
37910;DHT22;23741;49.446;8.754;2023-03-01T08:34:49;6.80;53.20
37910;DHT22;23741;49.446;8.754;2023-03-01T08:36:51;6.80;52.90
37910;DHT22;23741;49.446;8.754;2023-03-01T08:38:53;6.90;52.90
37910;DHT22;23741;49.446;8.754;2023-03-01T08:40:55;6.90;53.00
37910;DHT22;23741;49.446;8.754;2023-03-01T08:43:02;6.90;53.00
37910;DHT22;23741;49.446;8.754;2023-03-01T08:45:05;6.90;53.00
37910;DHT22;23741;49.446;8.754;2023-03-01T08:47:06;7.00;53.10
37910;DHT22;23741;49.446;8.754;2023-03-01T08:49:12;7.00;53.00
37910;DHT22;23741;49.446;8.754;2023-03-01T08:51:16;7.10;53.00
37910;DHT22;23741;49.446;8.754;2023-03-01T08:53:18;7.10;53.00
37910;DHT22;23741;49.446;8.754;2023-03-01T08:55:20;7.10;53.00
37910;DHT22;23741;49.446;8.754;2023-03-01T08:57:22;7.20;53.00
37910;DHT22;23741;49.446;8.754;2023-03-01T08:59:24;7.20;52.90
37910;DHT22;23741;49.446;8.754;2023-03-01T09:01:26;7.30;53.00
37910;DHT22;23741;49.446;8.754;2023-03-01T09:03:28;7.30;52.80
37910;DHT22;23741;49.446;8.754;2023-03-01T09:05:33;7.30;53.40
37910;DHT22;23741;49.446;8.754;2023-03-01T09:07:35;7.30;52.60
37910;DHT22;23741;49.446;8.754;2023-03-01T09:09:37;7.30;52.60
37910;DHT22;23741;49.446;8.754;2023-03-01T09:11:39;7.40;52.50
37910;DHT22;23741;49.446;8.754;2023-03-01T09:13:40;7.40;52.60
37910;DHT22;23741;49.446;8.754;2023-03-01T09:15:44;7.40;52.70
37910;DHT22;23741;49.446;8.754;2023-03-01T09:17:46;7.40;52.40
37910;DHT22;23741;49.446;8.754;2023-03-01T09:19:48;7.40;52.40
37910;DHT22;23741;49.446;8.754;2023-03-01T09:21:50;7.40;52.50
37910;DHT22;23741;49.446;8.754;2023-03-01T09:23:55;7.50;52.50
37910;DHT22;23741;49.446;8.754;2023-03-01T09:25:57;7.50;52.60
37910;DHT22;23741;49.446;8.754;2023-03-01T09:27:59;7.50;52.70
37910;DHT22;23741;49.446;8.754;2023-03-01T09:30:01;7.60;52.60
37910;DHT22;23741;49.446;8.754;2023-03-01T09:32:03;7.60;52.60
37910;DHT22;23741;49.446;8.754;2023-03-01T09:34:05;7.70;52.60
37910;DHT22;23741;49.446;8.754;2023-03-01T09:36:08;7.70;52.30
37910;DHT22;23741;49.446;8.754;2023-03-01T09:38:12;7.70;52.10
37910;DHT22;23741;49.446;8.754;2023-03-01T09:40:15;7.70;52.30
37910;DHT22;23741;49.446;8.754;2023-03-01T09:42:18;7.80;52.40
37910;DHT22;23741;49.446;8.754;2023-03-01T09:46:41;7.80;52.20
37910;DHT22;23741;49.446;8.754;2023-03-01T09:49:00;7.80;52.00
37910;DHT22;23741;49.446;8.754;2023-03-01T09:51:03;7.90;52.00
37910;DHT22;23741;49.446;8.754;2023-03-01T09:53:12;7.90;52.10
37910;DHT22;23741;49.446;8.754;2023-03-01T09:55:16;7.90;52.10
37910;DHT22;23741;49.446;8.754;2023-03-01T09:57:20;8.00;52.30
37910;DHT22;23741;49.446;8.754;2023-03-01T09:59:33;8.00;52.30
37910;DHT22;23741;49.446;8.754;2023-03-01T10:04:00;8.10;52.30
37910;DHT22;23741;49.446;8.754;2023-03-01T10:06:10;8.20;52.40
37910;DHT22;23741;49.446;8.754;2023-03-01T10:10:38;8.40;52.20
37910;DHT22;23741;49.446;8.754;2023-03-01T10:12:41;8.40;52.20
37910;DHT22;23741;49.446;8.754;2023-03-01T10:19:24;8.70;52.20
37910;DHT22;23741;49.446;8.754;2023-03-01T10:21:28;8.70;52.10
37910;DHT22;23741;49.446;8.754;2023-03-01T10:23:33;8.80;52.10
37910;DHT22;23741;49.446;8.754;2023-03-01T10:25:40;8.90;51.90
37910;DHT22;23741;49.446;8.754;2023-03-01T10:27:54;8.90;51.90
37910;DHT22;23741;49.446;8.754;2023-03-01T10:29:59;9.00;51.80
37910;DHT22;23741;49.446;8.754;2023-03-01T10:32:04;9.10;51.50
37910;DHT22;23741;49.446;8.754;2023-03-01T10:34:18;9.10;51.40
37910;DHT22;23741;49.446;8.754;2023-03-01T10:36:21;9.10;51.50
37910;DHT22;23741;49.446;8.754;2023-03-01T10:38:23;9.20;51.50
37910;DHT22;23741;49.446;8.754;2023-03-01T10:40:24;9.30;51.70
37910;DHT22;23741;49.446;8.754;2023-03-01T10:42:27;9.30;51.70
37910;DHT22;23741;49.446;8.754;2023-03-01T10:44:37;9.40;51.50
37910;DHT22;23741;49.446;8.754;2023-03-01T10:46:39;9.50;51.70
37910;DHT22;23741;49.446;8.754;2023-03-01T10:48:41;9.50;51.70
37910;DHT22;23741;49.446;8.754;2023-03-01T10:50:50;9.60;51.70
37910;DHT22;23741;49.446;8.754;2023-03-01T10:53:00;9.70;51.70
37910;DHT22;23741;49.446;8.754;2023-03-01T10:55:04;9.80;51.70
37910;DHT22;23741;49.446;8.754;2023-03-01T11:00:00;10.00;51.70
37910;DHT22;23741;49.446;8.754;2023-03-01T11:04:25;10.20;51.00
37910;DHT22;23741;49.446;8.754;2023-03-01T11:06:26;10.30;51.10
37910;DHT22;23741;49.446;8.754;2023-03-01T11:10:35;10.50;50.90
37910;DHT22;23741;49.446;8.754;2023-03-01T11:12:37;10.60;50.60
37910;DHT22;23741;49.446;8.754;2023-03-01T11:14:45;10.70;50.60
37910;DHT22;23741;49.446;8.754;2023-03-01T11:16:48;10.80;50.70
37910;DHT22;23741;49.446;8.754;2023-03-01T11:21:10;11.00;50.70
37910;DHT22;23741;49.446;8.754;2023-03-01T11:23:13;11.00;50.20
37910;DHT22;23741;49.446;8.754;2023-03-01T11:25:15;11.20;50.30
37910;DHT22;23741;49.446;8.754;2023-03-01T11:27:21;11.20;50.20
37910;DHT22;23741;49.446;8.754;2023-03-01T11:31:33;11.40;49.80
37910;DHT22;23741;49.446;8.754;2023-03-01T11:35:38;11.50;50.10
37910;DHT22;23741;49.446;8.754;2023-03-01T11:37:51;11.60;49.80
37910;DHT22;23741;49.446;8.754;2023-03-01T11:39:58;11.70;49.90
37910;DHT22;23741;49.446;8.754;2023-03-01T11:42:20;11.70;49.80
37910;DHT22;23741;49.446;8.754;2023-03-01T11:44:25;11.80;49.70
37910;DHT22;23741;49.446;8.754;2023-03-01T11:49:26;12.00;49.90
37910;DHT22;23741;49.446;8.754;2023-03-01T11:50:56;12.10;50.00
37910;DHT22;23741;49.446;8.754;2023-03-01T11:53:16;12.10;50.10
37910;DHT22;23741;49.446;8.754;2023-03-01T11:55:24;12.20;49.80
37910;DHT22;23741;49.446;8.754;2023-03-01T12:15:05;12.80;49.10
37910;DHT22;23741;49.446;8.754;2023-03-01T12:35:03;13.10;48.50
37910;DHT22;23741;49.446;8.754;2023-03-01T12:41:54;13.30;48.00
37910;DHT22;23741;49.446;8.754;2023-03-01T12:44:11;13.30;48.40
37910;DHT22;23741;49.446;8.754;2023-03-01T12:46:20;13.30;48.50
37910;DHT22;23741;49.446;8.754;2023-03-01T12:50:53;13.40;47.60
37910;DHT22;23741;49.446;8.754;2023-03-01T12:52:56;13.40;47.10
37910;DHT22;23741;49.446;8.754;2023-03-01T12:54:58;13.40;47.30
37910;DHT22;23741;49.446;8.754;2023-03-01T12:57:14;13.40;46.40
37910;DHT22;23741;49.446;8.754;2023-03-01T13:08:14;13.50;47.20
37910;DHT22;23741;49.446;8.754;2023-03-01T13:14:44;13.40;46.90
37910;DHT22;23741;49.446;8.754;2023-03-01T13:16:47;13.40;47.10
37910;DHT22;23741;49.446;8.754;2023-03-01T13:18:50;13.40;47.20
37910;DHT22;23741;49.446;8.754;2023-03-01T13:21:07;13.40;46.90
37910;DHT22;23741;49.446;8.754;2023-03-01T13:23:11;13.50;46.70
37910;DHT22;23741;49.446;8.754;2023-03-01T13:25:17;13.50;47.20
37910;DHT22;23741;49.446;8.754;2023-03-01T13:27:23;13.50;47.40
37910;DHT22;23741;49.446;8.754;2023-03-01T13:29:26;13.50;46.80
37910;DHT22;23741;49.446;8.754;2023-03-01T13:35:41;13.60;46.90
37910;DHT22;23741;49.446;8.754;2023-03-01T13:37:44;13.60;46.80
37910;DHT22;23741;49.446;8.754;2023-03-01T13:39:46;13.60;45.50
37910;DHT22;23741;49.446;8.754;2023-03-01T13:41:49;13.60;46.40
37910;DHT22;23741;49.446;8.754;2023-03-01T13:43:51;13.70;46.30
37910;DHT22;23741;49.446;8.754;2023-03-01T13:45:53;13.70;46.80
37910;DHT22;23741;49.446;8.754;2023-03-01T13:47:57;13.70;46.50
37910;DHT22;23741;49.446;8.754;2023-03-01T13:50:00;13.80;47.10
37910;DHT22;23741;49.446;8.754;2023-03-01T13:52:04;13.80;47.00
37910;DHT22;23741;49.446;8.754;2023-03-01T13:54:09;13.80;47.00
37910;DHT22;23741;49.446;8.754;2023-03-01T13:56:13;13.90;46.60
37910;DHT22;23741;49.446;8.754;2023-03-01T13:58:26;13.90;47.20
37910;DHT22;23741;49.446;8.754;2023-03-01T14:02:30;14.10;47.30
37910;DHT22;23741;49.446;8.754;2023-03-01T14:04:33;14.10;47.20
37910;DHT22;23741;49.446;8.754;2023-03-01T14:06:37;14.10;46.90
37910;DHT22;23741;49.446;8.754;2023-03-01T14:08:39;14.20;46.60
37910;DHT22;23741;49.446;8.754;2023-03-01T14:10:53;14.30;45.70
37910;DHT22;23741;49.446;8.754;2023-03-01T14:13:06;14.30;45.50
37910;DHT22;23741;49.446;8.754;2023-03-01T14:15:22;14.30;45.90
37910;DHT22;23741;49.446;8.754;2023-03-01T14:17:41;14.30;45.90
37910;DHT22;23741;49.446;8.754;2023-03-01T14:19:46;14.40;44.90
37910;DHT22;23741;49.446;8.754;2023-03-01T14:21:49;14.40;45.60
37910;DHT22;23741;49.446;8.754;2023-03-01T14:23:59;14.40;45.70
37910;DHT22;23741;49.446;8.754;2023-03-01T14:26:02;14.40;45.20
37910;DHT22;23741;49.446;8.754;2023-03-01T14:30:19;14.40;44.90
37910;DHT22;23741;49.446;8.754;2023-03-01T14:32:29;14.40;44.70
37910;DHT22;23741;49.446;8.754;2023-03-01T14:34:31;14.40;45.30
37910;DHT22;23741;49.446;8.754;2023-03-01T14:36:33;14.40;44.90
37910;DHT22;23741;49.446;8.754;2023-03-01T14:38:39;14.40;44.70
37910;DHT22;23741;49.446;8.754;2023-03-01T14:40:41;14.40;45.30
37910;DHT22;23741;49.446;8.754;2023-03-01T14:42:43;14.40;44.20
37910;DHT22;23741;49.446;8.754;2023-03-01T14:44:46;14.40;45.20
37910;DHT22;23741;49.446;8.754;2023-03-01T14:46:51;14.40;44.40
37910;DHT22;23741;49.446;8.754;2023-03-01T14:48:55;14.40;44.40
37910;DHT22;23741;49.446;8.754;2023-03-01T14:50:58;14.40;45.40
37910;DHT22;23741;49.446;8.754;2023-03-01T14:53:02;14.40;45.40